Time;durP1;ratioP1;P1;durP2;ratioP2;P2;SDS_P1;SDS_P2;PMS_P1;PMS_P2;Temp;Humidity;BMP_temperature;BMP_pressure;BME280_temperature;BME280_humidity;BME280_pressure;Samples;Min_cycle;Max_cycle;Signal;HPM_P1;HPM_P2
2023/12/25 00:01:15;;;;;;;;;;;;;;;;;;5102150;28;20383;-84
2023/12/25 00:03:42;;;;;;;;;;;;;;;;;;5118019;28;19927;-83
2023/12/25 00:06:15;;;;;;;;;;;;;;;;;;5113856;28;20006;-83
2023/12/25 00:08:43;;;;;;;;;;;;;;;;;;5101610;28;19970;-85
2023/12/25 00:11:10;;;;;;;;;;;;;;;;;;5084994;28;20380;-84
2023/12/25 00:13:37;;;;;;;;;;;;;;;;;;5118265;28;19981;-81
2023/12/25 00:16:03;;;;;;;;;;;;;;;;;;5116406;28;19976;-83
2023/12/25 00:18:30;;;;;;;;;;;;;;;;;;5125210;28;20376;-84
2023/12/25 00:20:56;;;;;;;;;;;;;;;;;;5102721;28;19928;-82
2023/12/25 00:23:23;;;;;;;;;;;;;;;;;;5122296;28;20409;-82
2023/12/25 00:25:49;;;;;;;;;;;;;;;;;;5101518;28;19924;-82
2023/12/25 00:28:16;;;;;;;;;;;;;;;;;;5087296;28;20451;-82
2023/12/25 00:30:42;;;;;;;;;;;;;;;;;;5097760;28;20433;-79
2023/12/25 00:33:11;;;;;;;;;;;;;;;;;;5098623;28;19930;-83
2023/12/25 00:35:51;;;;;;;;;;;;;;;;;;5108106;28;19966;-82
2023/12/25 00:38:18;;;;;;;;;;;;;;;;;;5124564;28;20346;-82
2023/12/25 00:40:44;;;;;;;;;;;;;;;;;;5100947;28;19967;-82
2023/12/25 00:43:11;;;;;;;;;;;;;;;;;;5101103;28;20132;-86
2023/12/25 00:45:37;;;;;;;;;;;;;;;;;;5102518;28;19977;-84
2023/12/25 00:48:04;;;;;;;;;;;;;;;;;;5129429;27;19924;-83
2023/12/25 00:50:30;;;;;;;;;;;;;;;;;;5090914;27;20045;-84
2023/12/25 00:52:57;;;;;;;;;;;;;;;;;;5104499;27;19938;-83
2023/12/25 00:55:23;;;;;;;;;;;;;;;;;;5090494;27;19930;-84
2023/12/25 00:57:50;;;;;;;;;;;;;;;;;;5110357;27;20030;-84
2023/12/25 01:00:17;;;;;;;;;;;;;;;;;;5104088;27;19928;-84
2023/12/25 01:02:43;;;;;;;;;;;;;;;;;;5099683;27;20046;-84
2023/12/25 01:05:10;;;;;;;;;;;;;;;;;;5101683;27;20334;-84
2023/12/25 01:07:36;;;;;;;;;;;;;;;;;;5108274;27;19931;-83
2023/12/25 01:10:03;;;;;;;;;;;;;;;;;;5111828;27;19947;-81
2023/12/25 01:12:30;;;;;;;;;;;;;;;;;;5104049;27;19959;-83
2023/12/25 01:14:56;;;;;;;;;;;;;;;;;;5109580;27;19934;-82
2023/12/25 01:17:23;;;;;;;;;;;;;;;;;;5113739;27;19923;-83
2023/12/25 01:19:51;;;;;;;;;;;;;;;;;;5100114;27;19927;-83
2023/12/25 01:22:17;;;;;;;;;;;;;;;;;;5106389;27;20322;-82
2023/12/25 01:24:43;;;;;;;;;;;;;;;;;;5123696;27;20076;-83
2023/12/25 01:27:10;;;;;;;;;;;;;;;;;;5109669;27;19927;-81
2023/12/25 01:29:37;;;;;;;;;;;;;;;;;;5110689;27;20022;-83
2023/12/25 01:32:03;;;;;;;;;;;;;;;;;;5102326;28;19927;-84
2023/12/25 01:34:30;;;;;;;;;;;;;;;;;;5090260;27;19923;-84
2023/12/25 01:36:57;;;;;;;;;;;;;;;;;;5120371;27;20295;-83
2023/12/25 01:39:24;;;;;;;;;;;;;;;;;;5106673;27;19928;-83
2023/12/25 01:41:50;;;;;;;;;;;;;;;;;;5104147;28;20376;-83
2023/12/25 01:44:16;;;;;;;;;;;;;;;;;;5090808;27;19983;-85
2023/12/25 01:46:48;;;;;;;;;;;;;;;;;;5108390;27;19923;-84
2023/12/25 01:49:15;;;;;;;;;;;;;;;;;;5104628;27;19962;-84
2023/12/25 01:51:41;;;;;;;;;;;;;;;;;;5119462;27;20384;-81
2023/12/25 01:54:08;;;;;;;;;;;;;;;;;;5102447;27;20018;-84
2023/12/25 01:56:35;;;;;;;;;;;;;;;;;;5104091;28;20334;-84
2023/12/25 01:59:02;;;;;;;;;;;;;;;;;;5091963;27;19924;-83
2023/12/25 02:01:30;;;;;;;;;;;;;;;;;;5104420;27;19934;-83
2023/12/25 02:03:56;;;;;;;;;;;;;;;;;;5102209;28;19946;-82
2023/12/25 02:06:23;;;;;;;;;;;;;;;;;;5102409;27;19976;-82
2023/12/25 02:08:49;;;;;;;;;;;;;;;;;;5106468;27;19973;-82
2023/12/25 02:11:16;;;;;;;;;;;;;;;;;;5108981;27;20018;-81
2023/12/25 02:13:42;;;;;;;;;;;;;;;;;;5100504;28;19934;-83
2023/12/25 02:16:09;;;;;;;;;;;;;;;;;;5103814;27;19945;-83
2023/12/25 02:18:35;;;;;;;;;;;;;;;;;;5111216;28;19931;-84
2023/12/25 02:21:03;;;;;;;;;;;;;;;;;;5087947;27;19928;-83
2023/12/25 02:23:30;;;;;;;;;;;;;;;;;;5125842;27;19924;-82
2023/12/25 02:25:56;;;;;;;;;;;;;;;;;;5087377;28;20008;-81
2023/12/25 02:28:23;;;;;;;;;;;;;;;;;;5102997;28;19988;-81
2023/12/25 02:30:49;;;;;;;;;;;;;;;;;;5091644;27;19935;-82
2023/12/25 02:33:15;;;;;;;;;;;;;;;;;;5102037;27;19931;-81
2023/12/25 02:35:43;;;;;;;;;;;;;;;;;;5101129;27;19963;-82
2023/12/25 02:38:09;;;;;;;;;;;;;;;;;;5084720;28;19928;-81
2023/12/25 02:40:39;;;;;;;;;;;;;;;;;;5121781;27;19969;-81
2023/12/25 02:43:05;;;;;;;;;;;;;;;;;;5110063;27;20040;-82
2023/12/25 02:45:32;;;;;;;;;;;;;;;;;;5104107;28;19927;-81
2023/12/25 02:47:58;;;;;;;;;;;;;;;;;;5120489;27;19927;-82
2023/12/25 02:50:25;;;;;;;;;;;;;;;;;;5105208;27;20300;-82
2023/12/25 02:52:51;;;;;;;;;;;;;;;;;;5109010;27;19923;-81
2023/12/25 02:55:21;;;;;;;;;;;;;;;;;;5105051;27;19923;-81
2023/12/25 02:57:47;;;;;;;;;;;;;;;;;;5119464;27;19931;-82
2023/12/25 03:00:14;;;;;;;;;;;;;;;;;;5108423;28;19924;-82
2023/12/25 03:02:40;;;;;;;;;;;;;;;;;;5124011;27;20408;-81
2023/12/25 03:05:07;;;;;;;;;;;;;;;;;;5089070;27;19950;-81
2023/12/25 03:07:34;;;;;;;;;;;;;;;;;;5113378;27;19956;-83
2023/12/25 03:10:00;;;;;;;;;;;;;;;;;;5106203;28;20405;-81
2023/12/25 03:12:27;;;;;;;;;;;;;;;;;;5124544;27;20269;-81
2023/12/25 03:14:53;;;;;;;;;;;;;;;;;;5107578;27;19967;-81
2023/12/25 03:17:20;;;;;;;;;;;;;;;;;;5107253;28;19928;-81
2023/12/25 03:19:47;;;;;;;;;;;;;;;;;;5097277;28;19931;-82
2023/12/25 03:22:13;;;;;;;;;;;;;;;;;;5120896;27;19995;-81
2023/12/25 03:24:39;;;;;;;;;;;;;;;;;;5116827;27;19931;-80
2023/12/25 03:27:06;;;;;;;;;;;;;;;;;;5101640;28;19972;-79
2023/12/25 03:29:32;;;;;;;;;;;;;;;;;;5100519;27;19976;-82
2023/12/25 03:31:59;;;;;;;;;;;;;;;;;;5085722;27;19930;-81
2023/12/25 03:34:26;;;;;;;;;;;;;;;;;;5103001;27;20010;-81
2023/12/25 03:36:52;;;;;;;;;;;;;;;;;;5104914;27;19927;-82
2023/12/25 03:39:19;;;;;;;;;;;;;;;;;;5094743;28;20326;-81
2023/12/25 03:41:45;;;;;;;;;;;;;;;;;;5098785;28;19999;-82
2023/12/25 03:44:12;;;;;;;;;;;;;;;;;;5104115;28;19946;-82
2023/12/25 03:46:38;;;;;;;;;;;;;;;;;;5104698;28;19930;-79
2023/12/25 03:49:05;;;;;;;;;;;;;;;;;;5098737;28;19923;-83
2023/12/25 03:51:32;;;;;;;;;;;;;;;;;;5094752;28;20003;-82
2023/12/25 03:53:58;;;;;;;;;;;;;;;;;;5104462;28;19950;-84
2023/12/25 03:56:25;;;;;;;;;;;;;;;;;;5107544;28;19932;-82
2023/12/25 03:58:51;;;;;;;;;;;;;;;;;;5101885;28;19928;-84
2023/12/25 04:01:18;;;;;;;;;;;;;;;;;;5105917;28;19989;-83
2023/12/25 04:03:44;;;;;;;;;;;;;;;;;;5105431;28;20396;-84
2023/12/25 04:06:11;;;;;;;;;;;;;;;;;;5105826;28;20437;-83
2023/12/25 04:08:37;;;;;;;;;;;;;;;;;;5102820;28;19924;-84
2023/12/25 04:11:04;;;;;;;;;;;;;;;;;;5101700;28;20315;-80
2023/12/25 04:13:30;;;;;;;;;;;;;;;;;;5100453;28;19928;-79
2023/12/25 04:15:57;;;;;;;;;;;;;;;;;;5101720;28;19939;-84
2023/12/25 04:18:23;;;;;;;;;;;;;;;;;;5101534;28;19992;-83
2023/12/25 04:20:50;;;;;;;;;;;;;;;;;;5084602;27;20037;-85
2023/12/25 04:23:16;;;;;;;;;;;;;;;;;;5098559;27;19930;-84
2023/12/25 04:25:43;;;;;;;;;;;;;;;;;;5111898;28;19928;-84
2023/12/25 04:28:09;;;;;;;;;;;;;;;;;;5127316;27;19930;-83
2023/12/25 04:30:36;;;;;;;;;;;;;;;;;;5090217;28;19928;-85
2023/12/25 04:33:02;;;;;;;;;;;;;;;;;;5108407;27;19933;-84
2023/12/25 04:35:29;;;;;;;;;;;;;;;;;;5124703;27;19924;-82
2023/12/25 04:37:55;;;;;;;;;;;;;;;;;;5125471;27;19947;-84
2023/12/25 04:40:22;;;;;;;;;;;;;;;;;;5124247;27;19924;-84
2023/12/25 04:42:48;;;;;;;;;;;;;;;;;;5090714;28;19923;-82
2023/12/25 04:45:15;;;;;;;;;;;;;;;;;;5112934;27;19923;-83
2023/12/25 04:47:41;;;;;;;;;;;;;;;;;;5108402;27;20341;-83
2023/12/25 04:50:08;;;;;;;;;;;;;;;;;;5106725;27;20032;-84
2023/12/25 04:52:35;;;;;;;;;;;;;;;;;;5113890;27;20387;-84
2023/12/25 04:55:02;;;;;;;;;;;;;;;;;;5102739;27;19930;-85
2023/12/25 04:57:28;;;;;;;;;;;;;;;;;;5107797;27;19927;-85
2023/12/25 04:59:54;;;;;;;;;;;;;;;;;;5088888;28;19923;-83
2023/12/25 05:02:22;;;;;;;;;;;;;;;;;;5106707;28;19930;-84
2023/12/25 05:04:49;;;;;;;;;;;;;;;;;;5115634;27;19924;-83
2023/12/25 05:07:16;;;;;;;;;;;;;;;;;;5087912;27;19924;-83
2023/12/25 05:09:42;;;;;;;;;;;;;;;;;;5104540;27;19937;-81
2023/12/25 05:12:08;;;;;;;;;;;;;;;;;;5085503;28;19924;-81
2023/12/25 05:14:35;;;;;;;;;;;;;;;;;;5112690;27;19952;-82
2023/12/25 05:17:01;;;;;;;;;;;;;;;;;;5086522;27;20303;-82
2023/12/25 05:19:28;;;;;;;;;;;;;;;;;;5124401;27;19924;-82
2023/12/25 05:21:55;;;;;;;;;;;;;;;;;;5090209;28;20272;-82
2023/12/25 05:24:21;;;;;;;;;;;;;;;;;;5123810;27;20018;-83
2023/12/25 05:26:48;;;;;;;;;;;;;;;;;;5123527;27;19945;-84
2023/12/25 05:29:14;;;;;;;;;;;;;;;;;;5121956;27;20032;-84
2023/12/25 05:31:41;;;;;;;;;;;;;;;;;;5119672;27;19924;-85
2023/12/25 05:34:07;;;;;;;;;;;;;;;;;;5104706;27;20329;-83
2023/12/25 05:36:34;;;;;;;;;;;;;;;;;;5090804;27;19931;-81
2023/12/25 05:39:00;;;;;;;;;;;;;;;;;;5103379;27;19992;-82
2023/12/25 05:41:35;;;;;;;;;;;;;;;;;;5108679;28;19924;-82
2023/12/25 05:44:02;;;;;;;;;;;;;;;;;;5130849;27;19934;-81
2023/12/25 05:46:30;;;;;;;;;;;;;;;;;;5110914;27;19928;-83
2023/12/25 05:48:56;;;;;;;;;;;;;;;;;;5113485;27;20026;-80
2023/12/25 05:51:23;;;;;;;;;;;;;;;;;;5128005;27;20437;-82
2023/12/25 05:53:49;;;;;;;;;;;;;;;;;;5107729;28;19969;-82
2023/12/25 05:56:16;;;;;;;;;;;;;;;;;;5123658;27;19924;-82
2023/12/25 05:58:42;;;;;;;;;;;;;;;;;;5105685;28;19928;-82
2023/12/25 06:01:09;;;;;;;;;;;;;;;;;;5102077;27;19963;-82
2023/12/25 06:03:35;;;;;;;;;;;;;;;;;;5119413;27;20358;-82
2023/12/25 06:06:02;;;;;;;;;;;;;;;;;;5103669;28;19934;-83
2023/12/25 06:08:28;;;;;;;;;;;;;;;;;;5122714;27;20530;-82
2023/12/25 06:10:55;;;;;;;;;;;;;;;;;;5121538;27;19934;-81
2023/12/25 06:13:21;;;;;;;;;;;;;;;;;;5104185;27;19982;-82
2023/12/25 06:15:48;;;;;;;;;;;;;;;;;;5107936;27;19977;-83
2023/12/25 06:18:15;;;;;;;;;;;;;;;;;;5122434;27;19979;-83
2023/12/25 06:20:41;;;;;;;;;;;;;;;;;;5120216;27;20016;-84
2023/12/25 06:23:08;;;;;;;;;;;;;;;;;;5097943;27;19928;-82
2023/12/25 06:25:34;;;;;;;;;;;;;;;;;;5119429;27;19959;-82
2023/12/25 06:28:01;;;;;;;;;;;;;;;;;;5102113;27;19924;-81
2023/12/25 06:30:27;;;;;;;;;;;;;;;;;;5099842;28;19924;-82
2023/12/25 06:32:54;;;;;;;;;;;;;;;;;;5099707;28;19963;-84
2023/12/25 06:35:21;;;;;;;;;;;;;;;;;;5101766;28;19924;-81
2023/12/25 06:37:47;;;;;;;;;;;;;;;;;;5123576;27;20415;-81
2023/12/25 06:40:14;;;;;;;;;;;;;;;;;;5117110;27;19934;-82
2023/12/25 06:42:40;;;;;;;;;;;;;;;;;;5103401;28;20015;-81
2023/12/25 06:45:07;;;;;;;;;;;;;;;;;;5106002;28;19924;-79
2023/12/25 06:47:34;;;;;;;;;;;;;;;;;;5101080;27;20354;-82
2023/12/25 06:50:00;;;;;;;;;;;;;;;;;;5104665;27;19924;-82
2023/12/25 06:52:27;;;;;;;;;;;;;;;;;;5122988;27;20295;-82
2023/12/25 06:54:53;;;;;;;;;;;;;;;;;;5088827;28;19924;-82
2023/12/25 06:57:20;;;;;;;;;;;;;;;;;;5122276;27;20048;-82
2023/12/25 06:59:46;;;;;;;;;;;;;;;;;;5087398;27;20281;-81
2023/12/25 07:02:13;;;;;;;;;;;;;;;;;;5117983;27;19931;-81
2023/12/25 07:04:39;;;;;;;;;;;;;;;;;;5073984;27;20292;-81
2023/12/25 07:07:06;;;;;;;;;;;;;;;;;;5100501;28;19924;-81
2023/12/25 07:09:32;;;;;;;;;;;;;;;;;;5104501;27;19927;-80
2023/12/25 07:11:59;;;;;;;;;;;;;;;;;;5106846;28;19963;-82
2023/12/25 07:14:26;;;;;;;;;;;;;;;;;;5121536;27;19931;-80
2023/12/25 07:16:52;;;;;;;;;;;;;;;;;;5129739;27;19931;-82
2023/12/25 07:19:18;;;;;;;;;;;;;;;;;;5095805;28;20402;-80
2023/12/25 07:21:45;;;;;;;;;;;;;;;;;;5102982;27;19923;-81
2023/12/25 07:24:14;;;;;;;;;;;;;;;;;;5122503;27;20563;-80
2023/12/25 07:26:40;;;;;;;;;;;;;;;;;;5091138;27;20344;-78
2023/12/25 07:29:06;;;;;;;;;;;;;;;;;;5099506;28;19928;-80
2023/12/25 07:31:33;;;;;;;;;;;;;;;;;;5105424;28;19923;-82
2023/12/25 07:33:59;;;;;;;;;;;;;;;;;;5117967;27;19962;-80
2023/12/25 07:36:27;;;;;;;;;;;;;;;;;;5104402;28;19973;-82
2023/12/25 07:38:53;;;;;;;;;;;;;;;;;;5108139;28;19935;-82
2023/12/25 07:41:20;;;;;;;;;;;;;;;;;;5123916;27;19945;-82
2023/12/25 07:43:46;;;;;;;;;;;;;;;;;;5105461;27;19973;-84
2023/12/25 07:46:13;;;;;;;;;;;;;;;;;;5106837;28;19924;-82
2023/12/25 07:48:39;;;;;;;;;;;;;;;;;;5103991;28;19969;-83
2023/12/25 07:51:05;;;;;;;;;;;;;;;;;;5123037;27;19927;-80
2023/12/25 07:53:32;;;;;;;;;;;;;;;;;;5121666;28;19924;-81
2023/12/25 07:55:58;;;;;;;;;;;;;;;;;;5135475;27;19934;-83
2023/12/25 07:58:25;;;;;;;;;;;;;;;;;;5127076;28;19934;-84
2023/12/25 08:00:52;;;;;;;;;;;;;;;;;;5108068;28;19923;-82
2023/12/25 08:03:18;;;;;;;;;;;;;;;;;;5120953;28;19934;-83
2023/12/25 08:05:45;;;;;;;;;;;;;;;;;;5106337;28;19967;-80
2023/12/25 08:08:11;;;;;;;;;;;;;;;;;;5109411;28;20375;-81
2023/12/25 08:10:38;;;;;;;;;;;;;;;;;;5123073;28;19923;-80
2023/12/25 08:13:04;;;;;;;;;;;;;;;;;;5121241;28;19963;-81
2023/12/25 08:15:31;;;;;;;;;;;;;;;;;;5122351;28;19924;-80
2023/12/25 08:17:59;;;;;;;;;;;;;;;;;;5132904;28;19912;-79
2023/12/25 08:20:26;;;;;;;;;;;;;;;;;;5106938;28;19931;-82
2023/12/25 08:22:52;;;;;;;;;;;;;;;;;;5106523;28;19924;-82
2023/12/25 08:25:19;;;;;;;;;;;;;;;;;;5106160;28;19924;-80
2023/12/25 08:27:45;;;;;;;;;;;;;;;;;;5089154;28;19987;-78
2023/12/25 08:30:11;;;;;;;;;;;;;;;;;;5094227;28;19939;-83
2023/12/25 08:32:38;;;;;;;;;;;;;;;;;;5109741;28;19929;-81
2023/12/25 08:35:04;;;;;;;;;;;;;;;;;;5102316;28;19970;-79
2023/12/25 08:37:31;;;;;;;;;;;;;;;;;;5107417;28;19930;-80
2023/12/25 08:39:57;;;;;;;;;;;;;;;;;;5106475;28;19923;-82
2023/12/25 08:42:23;;;;;;;;;;;;;;;;;;5117894;28;19931;-83
2023/12/25 08:44:50;;;;;;;;;;;;;;;;;;5124130;28;19923;-80
2023/12/25 08:47:16;;;;;;;;;;;;;;;;;;5103921;28;19928;-80
2023/12/25 08:49:43;;;;;;;;;;;;;;;;;;5107392;28;19969;-81
2023/12/25 08:52:09;;;;;;;;;;;;;;;;;;5122259;28;19963;-82
2023/12/25 08:54:36;;;;;;;;;;;;;;;;;;5109100;28;19972;-82
2023/12/25 08:57:04;;;;;;;;;;;;;;;;;;5102032;28;19928;-83
2023/12/25 08:59:30;;;;;;;;;;;;;;;;;;5107980;28;20378;-81
2023/12/25 09:01:56;;;;;;;;;;;;;;;;;;5118882;28;19924;-81
2023/12/25 09:04:23;;;;;;;;;;;;;;;;;;5100417;28;20326;-83
2023/12/25 09:06:49;;;;;;;;;;;;;;;;;;5100413;27;19973;-83
2023/12/25 09:09:16;;;;;;;;;;;;;;;;;;5104217;28;19959;-82
2023/12/25 09:11:43;;;;;;;;;;;;;;;;;;5122405;27;20035;-82
2023/12/25 09:14:09;;;;;;;;;;;;;;;;;;5122450;27;19930;-82
2023/12/25 09:16:36;;;;;;;;;;;;;;;;;;5115063;27;19928;-81
2023/12/25 09:19:03;;;;;;;;;;;;;;;;;;5102677;27;19924;-83
2023/12/25 09:21:30;;;;;;;;;;;;;;;;;;5104594;27;19946;-83
2023/12/25 09:23:56;;;;;;;;;;;;;;;;;;5124065;27;20372;-82
2023/12/25 09:26:23;;;;;;;;;;;;;;;;;;5102368;27;20021;-81
2023/12/25 09:28:50;;;;;;;;;;;;;;;;;;5108308;27;19924;-81
2023/12/25 09:31:17;;;;;;;;;;;;;;;;;;5123317;27;19967;-81
2023/12/25 09:33:44;;;;;;;;;;;;;;;;;;5121602;27;19956;-83
2023/12/25 09:36:11;;;;;;;;;;;;;;;;;;5101167;27;19923;-82
2023/12/25 09:38:37;;;;;;;;;;;;;;;;;;5102074;27;19934;-79
2023/12/25 09:41:04;;;;;;;;;;;;;;;;;;5123190;27;19924;-82
2023/12/25 09:43:30;;;;;;;;;;;;;;;;;;5120465;27;19974;-83
2023/12/25 09:45:57;;;;;;;;;;;;;;;;;;5121948;27;19997;-82
2023/12/25 09:48:23;;;;;;;;;;;;;;;;;;5120183;27;20034;-82
2023/12/25 09:50:50;;;;;;;;;;;;;;;;;;5086581;27;20577;-81
2023/12/25 09:53:16;;;;;;;;;;;;;;;;;;5120697;27;19931;-82
2023/12/25 09:55:43;;;;;;;;;;;;;;;;;;5121551;27;19959;-80
2023/12/25 09:58:12;;;;;;;;;;;;;;;;;;5099786;28;19947;-82
2023/12/25 10:00:39;;;;;;;;;;;;;;;;;;5107497;27;19934;-81
2023/12/25 10:03:05;;;;;;;;;;;;;;;;;;5117323;27;19939;-81
2023/12/25 10:05:32;;;;;;;;;;;;;;;;;;5121521;27;19927;-81
2023/12/25 10:07:58;;;;;;;;;;;;;;;;;;5100777;27;20271;-82
2023/12/25 10:10:25;;;;;;;;;;;;;;;;;;5107790;27;19924;-82
2023/12/25 10:12:51;;;;;;;;;;;;;;;;;;5105043;27;19959;-80
2023/12/25 10:15:17;;;;;;;;;;;;;;;;;;5106000;27;20031;-81
2023/12/25 10:17:44;;;;;;;;;;;;;;;;;;5103909;27;19931;-82
2023/12/25 10:20:10;;;;;;;;;;;;;;;;;;5121586;27;20604;-80
2023/12/25 10:22:38;;;;;;;;;;;;;;;;;;5122694;27;19924;-81
2023/12/25 10:25:06;;;;;;;;;;;;;;;;;;5118970;27;19924;-80
2023/12/25 10:27:32;;;;;;;;;;;;;;;;;;5102356;27;19930;-82
2023/12/25 10:29:59;;;;;;;;;;;;;;;;;;5120597;27;19924;-79
2023/12/25 10:32:25;;;;;;;;;;;;;;;;;;5120733;27;19927;-79
2023/12/25 10:34:52;;;;;;;;;;;;;;;;;;5118099;27;19949;-79
2023/12/25 10:37:18;;;;;;;;;;;;;;;;;;5122745;27;19927;-80
2023/12/25 10:39:45;;;;;;;;;;;;;;;;;;5101894;28;20423;-82
2023/12/25 10:42:14;;;;;;;;;;;;;;;;;;5106679;27;19949;-82
2023/12/25 10:44:41;;;;;;;;;;;;;;;;;;5116613;27;19934;-79
2023/12/25 10:47:08;;;;;;;;;;;;;;;;;;5103344;27;19924;-79
2023/12/25 10:49:35;;;;;;;;;;;;;;;;;;5098663;27;19976;-81
2023/12/25 10:52:01;;;;;;;;;;;;;;;;;;5105740;27;19923;-82
2023/12/25 10:54:28;;;;;;;;;;;;;;;;;;5115838;27;19923;-78
2023/12/25 10:56:55;;;;;;;;;;;;;;;;;;5095533;27;20739;-80
2023/12/25 10:59:21;;;;;;;;;;;;;;;;;;5103173;28;19931;-81
2023/12/25 11:01:48;;;;;;;;;;;;;;;;;;5120891;27;19923;-80
2023/12/25 11:04:15;;;;;;;;;;;;;;;;;;5120412;27;19982;-81
2023/12/25 11:06:41;;;;;;;;;;;;;;;;;;5099431;28;19927;-81
2023/12/25 11:09:08;;;;;;;;;;;;;;;;;;5116864;27;20047;-78
2023/12/25 11:11:34;;;;;;;;;;;;;;;;;;5104547;27;20379;-80
2023/12/25 11:14:01;;;;;;;;;;;;;;;;;;5104449;28;20417;-80
2023/12/25 11:16:27;;;;;;;;;;;;;;;;;;5096532;28;19943;-79
2023/12/25 11:18:54;;;;;;;;;;;;;;;;;;5100610;28;19934;-81
2023/12/25 11:21:21;;;;;;;;;;;;;;;;;;5103326;28;19930;-80
2023/12/25 11:23:48;;;;;;;;;;;;;;;;;;5104093;27;20003;-80
2023/12/25 11:26:17;;;;;;;;;;;;;;;;;;5104134;27;20368;-80
2023/12/25 11:28:43;;;;;;;;;;;;;;;;;;5120201;27;19927;-80
2023/12/25 11:31:10;;;;;;;;;;;;;;;;;;5102194;28;19961;-80
2023/12/25 11:33:36;;;;;;;;;;;;;;;;;;5105216;27;19934;-82
2023/12/25 11:36:03;;;;;;;;;;;;;;;;;;5093179;28;19927;-82
2023/12/25 11:38:29;;;;;;;;;;;;;;;;;;5097717;28;19925;-81
2023/12/25 11:40:56;;;;;;;;;;;;;;;;;;5112788;27;20387;-81
2023/12/25 11:43:23;;;;;;;;;;;;;;;;;;5119197;27;19969;-81
2023/12/25 11:45:50;;;;;;;;;;;;;;;;;;5101198;28;19923;-82
2023/12/25 11:48:19;;;;;;;;;;;;;;;;;;5118498;27;19945;-81
2023/12/25 11:50:46;;;;;;;;;;;;;;;;;;5117951;27;19928;-81
2023/12/25 11:53:12;;;;;;;;;;;;;;;;;;5102359;28;20486;-81
2023/12/25 11:55:39;;;;;;;;;;;;;;;;;;5086221;28;20046;-81
2023/12/25 11:58:05;;;;;;;;;;;;;;;;;;5097517;28;19923;-81
2023/12/25 12:00:32;;;;;;;;;;;;;;;;;;5120123;28;19923;-80
2023/12/25 12:02:59;;;;;;;;;;;;;;;;;;5123467;28;19959;-80
2023/12/25 12:05:27;;;;;;;;;;;;;;;;;;5122093;28;19970;-81
2023/12/25 12:07:54;;;;;;;;;;;;;;;;;;5097742;28;20324;-80
2023/12/25 12:10:20;;;;;;;;;;;;;;;;;;5093342;28;20013;-81
2023/12/25 12:12:47;;;;;;;;;;;;;;;;;;5101030;28;20018;-81
2023/12/25 12:15:13;;;;;;;;;;;;;;;;;;5121388;28;20031;-80
2023/12/25 12:17:40;;;;;;;;;;;;;;;;;;5117480;28;19924;-78
2023/12/25 12:20:07;;;;;;;;;;;;;;;;;;5095332;28;20436;-80
2023/12/25 12:22:33;;;;;;;;;;;;;;;;;;5104654;28;19928;-81
2023/12/25 12:25:00;;;;;;;;;;;;;;;;;;5079759;28;20327;-81
2023/12/25 12:27:26;;;;;;;;;;;;;;;;;;5118495;28;19931;-83
2023/12/25 12:29:53;;;;;;;;;;;;;;;;;;5082442;28;19923;-80
2023/12/25 12:32:19;;;;;;;;;;;;;;;;;;5118357;28;19927;-82
2023/12/25 12:34:45;;;;;;;;;;;;;;;;;;5101851;28;19924;-82
2023/12/25 12:37:12;;;;;;;;;;;;;;;;;;5120557;28;19928;-81
2023/12/25 12:39:39;;;;;;;;;;;;;;;;;;5089463;28;19923;-81
2023/12/25 12:42:05;;;;;;;;;;;;;;;;;;5097088;28;19962;-81
2023/12/25 12:44:32;;;;;;;;;;;;;;;;;;5106430;27;19924;-80
2023/12/25 12:46:58;;;;;;;;;;;;;;;;;;5104546;28;19932;-82
2023/12/25 12:49:25;;;;;;;;;;;;;;;;;;5121941;27;20439;-82
2023/12/25 12:51:53;;;;;;;;;;;;;;;;;;5119858;27;20376;-83
2023/12/25 12:54:19;;;;;;;;;;;;;;;;;;5123127;27;20330;-82
2023/12/25 12:56:46;;;;;;;;;;;;;;;;;;5103156;28;19931;-81
2023/12/25 12:59:12;;;;;;;;;;;;;;;;;;5106415;27;20314;-80
2023/12/25 13:01:39;;;;;;;;;;;;;;;;;;5106563;27;20379;-81
2023/12/25 13:04:05;;;;;;;;;;;;;;;;;;5112042;27;19928;-79
2023/12/25 13:06:32;;;;;;;;;;;;;;;;;;5130090;27;19923;-78
2023/12/25 13:08:58;;;;;;;;;;;;;;;;;;5123283;27;19934;-81
2023/12/25 13:11:29;;;;;;;;;;;;;;;;;;5123679;27;19931;-79
2023/12/25 13:13:55;;;;;;;;;;;;;;;;;;5124344;27;20015;-80
2023/12/25 13:16:22;;;;;;;;;;;;;;;;;;5097657;28;19934;-81
2023/12/25 13:18:48;;;;;;;;;;;;;;;;;;5106797;27;20471;-79
2023/12/25 13:21:15;;;;;;;;;;;;;;;;;;5107554;28;20012;-80
2023/12/25 13:23:42;;;;;;;;;;;;;;;;;;5117007;27;19998;-80
2023/12/25 13:26:09;;;;;;;;;;;;;;;;;;5112952;27;19967;-82
2023/12/25 13:28:35;;;;;;;;;;;;;;;;;;5131566;27;19924;-81
2023/12/25 13:31:02;;;;;;;;;;;;;;;;;;5127890;27;20448;-81
2023/12/25 13:33:28;;;;;;;;;;;;;;;;;;5119695;27;19928;-81
2023/12/25 13:35:55;;;;;;;;;;;;;;;;;;5090473;27;19984;-81
2023/12/25 13:38:22;;;;;;;;;;;;;;;;;;5090925;28;19955;-79
2023/12/25 13:40:49;;;;;;;;;;;;;;;;;;5104079;27;19954;-80
2023/12/25 13:43:15;;;;;;;;;;;;;;;;;;5105120;27;19924;-79
2023/12/25 13:45:42;;;;;;;;;;;;;;;;;;5124635;27;19927;-80
2023/12/25 13:48:08;;;;;;;;;;;;;;;;;;5131154;27;19924;-80
2023/12/25 13:50:35;;;;;;;;;;;;;;;;;;5106105;28;19923;-79
2023/12/25 13:53:02;;;;;;;;;;;;;;;;;;5103054;28;19924;-80
2023/12/25 13:55:29;;;;;;;;;;;;;;;;;;5115570;28;20398;-80
2023/12/25 13:57:55;;;;;;;;;;;;;;;;;;5107913;27;19924;-79
2023/12/25 14:00:22;;;;;;;;;;;;;;;;;;5107305;27;20319;-79
2023/12/25 14:02:49;;;;;;;;;;;;;;;;;;5109913;28;20003;-79
2023/12/25 14:05:16;;;;;;;;;;;;;;;;;;5114455;27;19990;-79
2023/12/25 14:07:42;;;;;;;;;;;;;;;;;;5113785;27;19965;-79
2023/12/25 14:10:09;;;;;;;;;;;;;;;;;;5091087;28;19924;-79
2023/12/25 14:12:35;;;;;;;;;;;;;;;;;;5091126;28;20014;-81
2023/12/25 14:15:02;;;;;;;;;;;;;;;;;;5088011;28;19931;-78
2023/12/25 14:17:28;;;;;;;;;;;;;;;;;;5111100;28;19924;-80
2023/12/25 14:19:55;;;;;;;;;;;;;;;;;;5129680;27;19924;-79
2023/12/25 14:22:21;;;;;;;;;;;;;;;;;;5107352;28;19958;-78
2023/12/25 14:24:48;;;;;;;;;;;;;;;;;;5104339;27;20361;-78
2023/12/25 14:27:14;;;;;;;;;;;;;;;;;;5133246;27;19924;-78
2023/12/25 14:29:41;;;;;;;;;;;;;;;;;;5107312;27;19912;-80
2023/12/25 14:32:07;;;;;;;;;;;;;;;;;;5104341;27;19947;-79
2023/12/25 14:34:34;;;;;;;;;;;;;;;;;;5088257;28;19924;-79
2023/12/25 14:37:01;;;;;;;;;;;;;;;;;;5109743;27;19924;-79
2023/12/25 14:39:27;;;;;;;;;;;;;;;;;;5106152;28;19931;-78
2023/12/25 14:41:53;;;;;;;;;;;;;;;;;;5127387;27;19923;-78
2023/12/25 14:44:20;;;;;;;;;;;;;;;;;;5104187;27;19936;-80
2023/12/25 14:46:50;;;;;;;;;;;;;;;;;;5093754;27;20362;-80
2023/12/25 14:49:17;;;;;;;;;;;;;;;;;;5109673;28;19924;-79
2023/12/25 14:51:44;;;;;;;;;;;;;;;;;;5110146;27;19995;-80
2023/12/25 14:54:13;;;;;;;;;;;;;;;;;;5107385;27;19930;-80
2023/12/25 14:56:40;;;;;;;;;;;;;;;;;;5108890;27;19927;-80
2023/12/25 14:59:06;;;;;;;;;;;;;;;;;;5089813;27;19945;-80
2023/12/25 15:01:33;;;;;;;;;;;;;;;;;;5106027;27;19977;-79
2023/12/25 15:04:00;;;;;;;;;;;;;;;;;;5124006;27;19923;-80
2023/12/25 15:06:27;;;;;;;;;;;;;;;;;;5109997;27;20026;-79
2023/12/25 15:08:53;;;;;;;;;;;;;;;;;;5130970;27;19980;-79
2023/12/25 15:11:20;;;;;;;;;;;;;;;;;;5121608;27;20382;-80
2023/12/25 15:13:46;;;;;;;;;;;;;;;;;;5107444;27;19969;-79
2023/12/25 15:16:13;;;;;;;;;;;;;;;;;;5104922;28;19966;-78
2023/12/25 15:18:40;;;;;;;;;;;;;;;;;;5129821;27;20012;-79
2023/12/25 15:21:08;;;;;;;;;;;;;;;;;;5108794;27;19930;-79
2023/12/25 15:23:35;;;;;;;;;;;;;;;;;;5115240;27;19928;-79
2023/12/25 15:26:01;;;;;;;;;;;;;;;;;;5126441;27;19931;-79
2023/12/25 15:28:29;;;;;;;;;;;;;;;;;;5120239;27;20284;-80
2023/12/25 15:30:56;;;;;;;;;;;;;;;;;;5126203;27;19923;-80
2023/12/25 15:33:22;;;;;;;;;;;;;;;;;;5129666;27;19930;-78
2023/12/25 15:35:49;;;;;;;;;;;;;;;;;;5102724;27;19944;-80
2023/12/25 15:38:15;;;;;;;;;;;;;;;;;;5128992;27;20085;-79
2023/12/25 15:40:42;;;;;;;;;;;;;;;;;;5087056;27;19993;-80
2023/12/25 15:43:09;;;;;;;;;;;;;;;;;;5090468;28;19927;-79
2023/12/25 15:45:35;;;;;;;;;;;;;;;;;;5105531;28;20276;-79
2023/12/25 15:48:04;;;;;;;;;;;;;;;;;;5115310;27;20384;-80
2023/12/25 15:50:31;;;;;;;;;;;;;;;;;;5101659;28;19930;-79
2023/12/25 15:52:59;;;;;;;;;;;;;;;;;;5098414;28;19932;-78
2023/12/25 15:55:26;;;;;;;;;;;;;;;;;;5120353;28;20315;-78
2023/12/25 15:57:54;;;;;;;;;;;;;;;;;;5084920;28;19928;-80
2023/12/25 16:00:20;;;;;;;;;;;;;;;;;;5122006;28;19924;-79
2023/12/25 16:02:49;;;;;;;;;;;;;;;;;;5117883;28;20010;-77
2023/12/25 16:05:16;;;;;;;;;;;;;;;;;;5120172;28;20459;-79
2023/12/25 16:07:43;;;;;;;;;;;;;;;;;;5100543;28;20404;-78
2023/12/25 16:10:11;;;;;;;;;;;;;;;;;;5124922;28;19924;-79
2023/12/25 16:12:39;;;;;;;;;;;;;;;;;;5105733;28;20391;-78
2023/12/25 16:15:06;;;;;;;;;;;;;;;;;;5101822;27;19927;-79
2023/12/25 16:17:33;;;;;;;;;;;;;;;;;;5103479;27;19924;-79
2023/12/25 16:20:00;;;;;;;;;;;;;;;;;;5102213;27;20518;-79
2023/12/25 16:22:29;;;;;;;;;;;;;;;;;;5086096;28;19927;-79
2023/12/25 16:24:55;;;;;;;;;;;;;;;;;;5123681;27;19939;-78
2023/12/25 16:27:22;;;;;;;;;;;;;;;;;;5117824;28;19928;-78
2023/12/25 16:29:48;;;;;;;;;;;;;;;;;;5108724;27;19931;-79
2023/12/25 16:32:15;;;;;;;;;;;;;;;;;;5093687;28;19935;-79
2023/12/25 16:34:42;;;;;;;;;;;;;;;;;;5125504;27;19928;-78
2023/12/25 16:37:08;;;;;;;;;;;;;;;;;;5107850;28;19977;-81
2023/12/25 16:39:34;;;;;;;;;;;;;;;;;;5106177;28;19973;-80
2023/12/25 16:42:01;;;;;;;;;;;;;;;;;;5104796;28;19924;-79